sensor_id;sensor_type;location;lat;lon;timestamp;temperature;humidity
16999;DHT22;10211;49.476;11.010;2023-03-14T00:01:20;8.70;99.90
16999;DHT22;10211;49.476;11.010;2023-03-14T00:03:47;8.70;99.90
16999;DHT22;10211;49.476;11.010;2023-03-14T00:06:14;8.70;99.90
16999;DHT22;10211;49.476;11.010;2023-03-14T00:08:43;8.70;99.90
16999;DHT22;10211;49.476;11.010;2023-03-14T00:11:11;8.70;99.90
16999;DHT22;10211;49.476;11.010;2023-03-14T00:13:40;8.70;99.90
16999;DHT22;10211;49.476;11.010;2023-03-14T00:16:09;8.70;99.90
16999;DHT22;10211;49.476;11.010;2023-03-14T00:18:36;8.60;99.90
16999;DHT22;10211;49.476;11.010;2023-03-14T00:21:05;8.60;99.90
16999;DHT22;10211;49.476;11.010;2023-03-14T00:23:33;8.60;99.90
16999;DHT22;10211;49.476;11.010;2023-03-14T00:26:02;8.70;99.90
16999;DHT22;10211;49.476;11.010;2023-03-14T00:28:29;8.60;99.90
16999;DHT22;10211;49.476;11.010;2023-03-14T00:30:57;8.60;99.90
16999;DHT22;10211;49.476;11.010;2023-03-14T00:33:24;8.70;99.90
16999;DHT22;10211;49.476;11.010;2023-03-14T00:35:55;8.60;99.90
16999;DHT22;10211;49.476;11.010;2023-03-14T00:38:22;8.60;99.90
16999;DHT22;10211;49.476;11.010;2023-03-14T00:40:50;8.60;99.90
16999;DHT22;10211;49.476;11.010;2023-03-14T00:43:16;8.70;99.90
16999;DHT22;10211;49.476;11.010;2023-03-14T00:45:43;8.70;99.90
16999;DHT22;10211;49.476;11.010;2023-03-14T00:48:11;8.70;99.90
16999;DHT22;10211;49.476;11.010;2023-03-14T00:50:39;8.70;99.90
16999;DHT22;10211;49.476;11.010;2023-03-14T00:53:05;8.70;99.90
16999;DHT22;10211;49.476;11.010;2023-03-14T00:55:36;8.70;99.90
16999;DHT22;10211;49.476;11.010;2023-03-14T00:58:03;8.80;99.90
16999;DHT22;10211;49.476;11.010;2023-03-14T01:00:30;8.80;99.90
16999;DHT22;10211;49.476;11.010;2023-03-14T01:02:56;8.80;99.90
16999;DHT22;10211;49.476;11.010;2023-03-14T01:05:25;8.80;99.90
16999;DHT22;10211;49.476;11.010;2023-03-14T01:07:51;8.80;99.90
16999;DHT22;10211;49.476;11.010;2023-03-14T01:10:18;8.90;99.90
16999;DHT22;10211;49.476;11.010;2023-03-14T01:12:45;8.90;99.90
16999;DHT22;10211;49.476;11.010;2023-03-14T01:15:12;8.90;99.90
16999;DHT22;10211;49.476;11.010;2023-03-14T01:17:39;8.90;99.90
16999;DHT22;10211;49.476;11.010;2023-03-14T01:20:07;8.90;99.90
16999;DHT22;10211;49.476;11.010;2023-03-14T01:22:37;8.90;99.90
16999;DHT22;10211;49.476;11.010;2023-03-14T01:25:06;8.90;99.90
16999;DHT22;10211;49.476;11.010;2023-03-14T01:27:32;8.90;99.90
16999;DHT22;10211;49.476;11.010;2023-03-14T01:29:59;8.90;99.90
16999;DHT22;10211;49.476;11.010;2023-03-14T01:32:26;8.90;99.90
16999;DHT22;10211;49.476;11.010;2023-03-14T01:34:53;8.90;99.90
16999;DHT22;10211;49.476;11.010;2023-03-14T01:37:20;8.90;99.90
16999;DHT22;10211;49.476;11.010;2023-03-14T01:39:48;8.90;99.90
16999;DHT22;10211;49.476;11.010;2023-03-14T01:42:15;8.90;99.90
16999;DHT22;10211;49.476;11.010;2023-03-14T01:44:49;8.90;99.90
16999;DHT22;10211;49.476;11.010;2023-03-14T01:47:17;8.90;99.90
16999;DHT22;10211;49.476;11.010;2023-03-14T01:49:45;8.90;99.90
16999;DHT22;10211;49.476;11.010;2023-03-14T01:52:15;8.90;99.90
16999;DHT22;10211;49.476;11.010;2023-03-14T01:54:44;8.90;99.90
16999;DHT22;10211;49.476;11.010;2023-03-14T01:57:16;9.00;99.90
16999;DHT22;10211;49.476;11.010;2023-03-14T01:59:46;9.00;99.90
16999;DHT22;10211;49.476;11.010;2023-03-14T02:02:15;9.00;99.90
16999;DHT22;10211;49.476;11.010;2023-03-14T02:04:43;9.00;99.90
16999;DHT22;10211;49.476;11.010;2023-03-14T02:07:13;9.00;99.90
16999;DHT22;10211;49.476;11.010;2023-03-14T02:09:42;9.10;99.90
16999;DHT22;10211;49.476;11.010;2023-03-14T02:12:10;9.10;99.90
16999;DHT22;10211;49.476;11.010;2023-03-14T02:14:39;9.10;99.90
16999;DHT22;10211;49.476;11.010;2023-03-14T02:17:08;9.10;99.90
16999;DHT22;10211;49.476;11.010;2023-03-14T02:19:50;9.20;99.90
16999;DHT22;10211;49.476;11.010;2023-03-14T02:22:20;9.20;99.90
16999;DHT22;10211;49.476;11.010;2023-03-14T02:24:51;9.20;99.90
16999;DHT22;10211;49.476;11.010;2023-03-14T02:27:26;9.20;99.90
16999;DHT22;10211;49.476;11.010;2023-03-14T02:29:55;9.20;99.90
16999;DHT22;10211;49.476;11.010;2023-03-14T02:32:24;9.20;99.90
16999;DHT22;10211;49.476;11.010;2023-03-14T02:34:53;9.20;99.90
16999;DHT22;10211;49.476;11.010;2023-03-14T02:37:24;9.20;99.90
16999;DHT22;10211;49.476;11.010;2023-03-14T02:39:53;9.20;99.90
16999;DHT22;10211;49.476;11.010;2023-03-14T02:42:21;9.20;99.90
16999;DHT22;10211;49.476;11.010;2023-03-14T02:44:51;9.20;99.90
16999;DHT22;10211;49.476;11.010;2023-03-14T02:47:21;9.20;99.90
16999;DHT22;10211;49.476;11.010;2023-03-14T02:49:51;9.20;99.90
16999;DHT22;10211;49.476;11.010;2023-03-14T02:52:19;9.20;99.90
16999;DHT22;10211;49.476;11.010;2023-03-14T02:54:46;9.10;99.90
16999;DHT22;10211;49.476;11.010;2023-03-14T02:57:13;9.10;99.90
16999;DHT22;10211;49.476;11.010;2023-03-14T02:59:39;9.10;99.90
16999;DHT22;10211;49.476;11.010;2023-03-14T03:02:07;9.10;99.90
16999;DHT22;10211;49.476;11.010;2023-03-14T03:04:34;9.00;99.90
16999;DHT22;10211;49.476;11.010;2023-03-14T03:07:01;9.00;99.90
16999;DHT22;10211;49.476;11.010;2023-03-14T03:09:28;9.00;99.90
16999;DHT22;10211;49.476;11.010;2023-03-14T03:11:55;9.00;99.90
16999;DHT22;10211;49.476;11.010;2023-03-14T03:14:21;8.90;99.90
16999;DHT22;10211;49.476;11.010;2023-03-14T03:16:48;8.90;99.90
16999;DHT22;10211;49.476;11.010;2023-03-14T03:19:16;8.80;99.90
16999;DHT22;10211;49.476;11.010;2023-03-14T03:21:43;8.90;99.90
16999;DHT22;10211;49.476;11.010;2023-03-14T03:24:10;8.90;99.90
16999;DHT22;10211;49.476;11.010;2023-03-14T03:26:37;8.90;99.90
16999;DHT22;10211;49.476;11.010;2023-03-14T03:29:03;8.90;99.90
16999;DHT22;10211;49.476;11.010;2023-03-14T03:31:30;8.90;99.90
16999;DHT22;10211;49.476;11.010;2023-03-14T03:33:57;8.90;99.90
16999;DHT22;10211;49.476;11.010;2023-03-14T03:36:26;8.80;99.90
16999;DHT22;10211;49.476;11.010;2023-03-14T03:38:52;8.80;99.90
16999;DHT22;10211;49.476;11.010;2023-03-14T03:41:20;8.80;99.90
16999;DHT22;10211;49.476;11.010;2023-03-14T03:43:47;8.80;99.90
16999;DHT22;10211;49.476;11.010;2023-03-14T03:46:14;8.80;99.90
16999;DHT22;10211;49.476;11.010;2023-03-14T03:48:41;8.70;99.90
16999;DHT22;10211;49.476;11.010;2023-03-14T03:51:12;8.70;99.90
16999;DHT22;10211;49.476;11.010;2023-03-14T03:53:41;8.70;99.90
16999;DHT22;10211;49.476;11.010;2023-03-14T03:56:08;8.70;99.90
16999;DHT22;10211;49.476;11.010;2023-03-14T03:58:35;8.70;99.90
16999;DHT22;10211;49.476;11.010;2023-03-14T04:01:04;8.80;99.90
16999;DHT22;10211;49.476;11.010;2023-03-14T04:03:31;8.80;99.90
16999;DHT22;10211;49.476;11.010;2023-03-14T04:05:59;8.70;99.90
16999;DHT22;10211;49.476;11.010;2023-03-14T04:08:26;8.70;99.90
16999;DHT22;10211;49.476;11.010;2023-03-14T04:10:56;8.70;99.90
16999;DHT22;10211;49.476;11.010;2023-03-14T04:13:22;8.60;99.90
16999;DHT22;10211;49.476;11.010;2023-03-14T04:15:50;8.60;99.90
16999;DHT22;10211;49.476;11.010;2023-03-14T04:18:17;8.60;99.90
16999;DHT22;10211;49.476;11.010;2023-03-14T04:20:44;8.60;99.90
16999;DHT22;10211;49.476;11.010;2023-03-14T04:23:11;8.60;99.90
16999;DHT22;10211;49.476;11.010;2023-03-14T04:25:38;8.60;99.90
16999;DHT22;10211;49.476;11.010;2023-03-14T04:28:06;8.60;99.90
16999;DHT22;10211;49.476;11.010;2023-03-14T04:30:32;8.60;99.90
16999;DHT22;10211;49.476;11.010;2023-03-14T04:32:59;8.60;99.90
16999;DHT22;10211;49.476;11.010;2023-03-14T04:35:26;8.50;99.90
16999;DHT22;10211;49.476;11.010;2023-03-14T04:37:53;8.50;99.90
16999;DHT22;10211;49.476;11.010;2023-03-14T04:40:19;8.50;99.90
16999;DHT22;10211;49.476;11.010;2023-03-14T04:42:46;8.50;99.90
16999;DHT22;10211;49.476;11.010;2023-03-14T04:45:14;8.50;99.90
16999;DHT22;10211;49.476;11.010;2023-03-14T04:47:41;8.50;99.90
16999;DHT22;10211;49.476;11.010;2023-03-14T04:50:09;8.50;99.90
16999;DHT22;10211;49.476;11.010;2023-03-14T04:52:36;8.50;99.90
16999;DHT22;10211;49.476;11.010;2023-03-14T04:55:03;8.50;99.90
16999;DHT22;10211;49.476;11.010;2023-03-14T04:57:30;8.50;99.90
16999;DHT22;10211;49.476;11.010;2023-03-14T04:59:57;8.40;99.90
16999;DHT22;10211;49.476;11.010;2023-03-14T05:02:25;8.40;99.90
16999;DHT22;10211;49.476;11.010;2023-03-14T05:04:52;8.40;99.90
16999;DHT22;10211;49.476;11.010;2023-03-14T05:07:19;8.40;99.90
16999;DHT22;10211;49.476;11.010;2023-03-14T05:09:45;8.40;99.90
16999;DHT22;10211;49.476;11.010;2023-03-14T05:12:12;8.40;99.90
16999;DHT22;10211;49.476;11.010;2023-03-14T05:14:39;8.40;99.90
16999;DHT22;10211;49.476;11.010;2023-03-14T05:17:06;8.30;99.90
16999;DHT22;10211;49.476;11.010;2023-03-14T05:19:34;8.40;99.90
16999;DHT22;10211;49.476;11.010;2023-03-14T05:22:01;8.40;99.90
16999;DHT22;10211;49.476;11.010;2023-03-14T05:24:28;8.40;99.90
16999;DHT22;10211;49.476;11.010;2023-03-14T05:26:54;8.40;99.90
16999;DHT22;10211;49.476;11.010;2023-03-14T05:29:21;8.40;99.90
16999;DHT22;10211;49.476;11.010;2023-03-14T05:31:48;8.40;99.90
16999;DHT22;10211;49.476;11.010;2023-03-14T05:34:15;8.40;99.90
16999;DHT22;10211;49.476;11.010;2023-03-14T05:36:43;8.40;99.90
16999;DHT22;10211;49.476;11.010;2023-03-14T05:39:09;8.30;99.90
16999;DHT22;10211;49.476;11.010;2023-03-14T05:41:36;8.30;99.90
16999;DHT22;10211;49.476;11.010;2023-03-14T05:44:03;8.30;99.90
16999;DHT22;10211;49.476;11.010;2023-03-14T05:46:30;8.30;99.90
16999;DHT22;10211;49.476;11.010;2023-03-14T05:48:57;8.20;99.90
16999;DHT22;10211;49.476;11.010;2023-03-14T05:51:24;8.20;99.90
16999;DHT22;10211;49.476;11.010;2023-03-14T05:53:52;8.20;99.90
16999;DHT22;10211;49.476;11.010;2023-03-14T05:56:19;8.30;99.90
16999;DHT22;10211;49.476;11.010;2023-03-14T05:58:45;8.30;99.90
16999;DHT22;10211;49.476;11.010;2023-03-14T06:01:12;8.40;99.90
16999;DHT22;10211;49.476;11.010;2023-03-14T06:03:39;8.40;99.90
16999;DHT22;10211;49.476;11.010;2023-03-14T06:06:06;8.40;99.90
16999;DHT22;10211;49.476;11.010;2023-03-14T06:08:33;8.40;99.90
16999;DHT22;10211;49.476;11.010;2023-03-14T06:11:02;8.40;99.90
16999;DHT22;10211;49.476;11.010;2023-03-14T06:13:29;8.40;99.90
16999;DHT22;10211;49.476;11.010;2023-03-14T06:15:56;8.40;99.90
16999;DHT22;10211;49.476;11.010;2023-03-14T06:18:22;8.50;99.90
16999;DHT22;10211;49.476;11.010;2023-03-14T06:20:49;8.50;99.90
16999;DHT22;10211;49.476;11.010;2023-03-14T06:23:19;8.50;99.90
16999;DHT22;10211;49.476;11.010;2023-03-14T06:25:46;8.50;99.90
16999;DHT22;10211;49.476;11.010;2023-03-14T06:28:14;8.50;99.90
16999;DHT22;10211;49.476;11.010;2023-03-14T06:30:41;8.60;99.90
16999;DHT22;10211;49.476;11.010;2023-03-14T06:33:07;8.60;99.90
16999;DHT22;10211;49.476;11.010;2023-03-14T06:35:34;8.70;99.90
16999;DHT22;10211;49.476;11.010;2023-03-14T06:38:01;8.70;99.90
16999;DHT22;10211;49.476;11.010;2023-03-14T06:40:28;8.70;99.90
16999;DHT22;10211;49.476;11.010;2023-03-14T06:42:54;8.80;99.90
16999;DHT22;10211;49.476;11.010;2023-03-14T06:45:23;8.80;99.90
16999;DHT22;10211;49.476;11.010;2023-03-14T06:47:49;8.80;99.90
16999;DHT22;10211;49.476;11.010;2023-03-14T06:50:16;8.80;99.90
16999;DHT22;10211;49.476;11.010;2023-03-14T06:52:43;8.90;99.90
16999;DHT22;10211;49.476;11.010;2023-03-14T06:55:13;8.90;99.90
16999;DHT22;10211;49.476;11.010;2023-03-14T06:57:40;9.00;99.90
16999;DHT22;10211;49.476;11.010;2023-03-14T07:00:08;9.00;99.90
16999;DHT22;10211;49.476;11.010;2023-03-14T07:02:36;9.10;99.90
16999;DHT22;10211;49.476;11.010;2023-03-14T07:05:04;9.20;99.90
16999;DHT22;10211;49.476;11.010;2023-03-14T07:07:31;9.30;99.90
16999;DHT22;10211;49.476;11.010;2023-03-14T07:09:57;9.30;99.90
16999;DHT22;10211;49.476;11.010;2023-03-14T07:12:24;9.40;99.90
16999;DHT22;10211;49.476;11.010;2023-03-14T07:14:51;9.50;99.90
16999;DHT22;10211;49.476;11.010;2023-03-14T07:17:17;9.50;99.90
16999;DHT22;10211;49.476;11.010;2023-03-14T07:19:45;9.50;99.90
16999;DHT22;10211;49.476;11.010;2023-03-14T07:22:12;9.50;99.90
16999;DHT22;10211;49.476;11.010;2023-03-14T07:24:39;9.60;99.90
16999;DHT22;10211;49.476;11.010;2023-03-14T07:27:05;9.70;99.90
16999;DHT22;10211;49.476;11.010;2023-03-14T07:29:32;9.70;99.90
16999;DHT22;10211;49.476;11.010;2023-03-14T07:31:59;9.80;99.90
16999;DHT22;10211;49.476;11.010;2023-03-14T07:34:25;9.90;99.90
16999;DHT22;10211;49.476;11.010;2023-03-14T07:36:54;10.00;99.90
16999;DHT22;10211;49.476;11.010;2023-03-14T07:39:23;10.10;99.90
16999;DHT22;10211;49.476;11.010;2023-03-14T07:41:49;10.20;99.90
16999;DHT22;10211;49.476;11.010;2023-03-14T07:44:16;10.20;99.90
16999;DHT22;10211;49.476;11.010;2023-03-14T07:46:43;10.20;99.90
16999;DHT22;10211;49.476;11.010;2023-03-14T07:49:09;10.20;99.90
16999;DHT22;10211;49.476;11.010;2023-03-14T07:51:36;10.20;99.90
16999;DHT22;10211;49.476;11.010;2023-03-14T07:54:04;10.30;99.90
16999;DHT22;10211;49.476;11.010;2023-03-14T07:56:31;10.50;99.90
16999;DHT22;10211;49.476;11.010;2023-03-14T07:58:58;10.70;99.90
16999;DHT22;10211;49.476;11.010;2023-03-14T08:01:25;10.80;99.90
16999;DHT22;10211;49.476;11.010;2023-03-14T08:03:51;11.00;99.90
16999;DHT22;10211;49.476;11.010;2023-03-14T08:06:18;11.50;99.90
16999;DHT22;10211;49.476;11.010;2023-03-14T08:08:45;11.90;99.90
16999;DHT22;10211;49.476;11.010;2023-03-14T08:11:13;12.10;99.90
16999;DHT22;10211;49.476;11.010;2023-03-14T08:13:39;12.10;99.90
16999;DHT22;10211;49.476;11.010;2023-03-14T08:16:07;12.20;99.90
16999;DHT22;10211;49.476;11.010;2023-03-14T08:18:34;12.40;99.90
16999;DHT22;10211;49.476;11.010;2023-03-14T08:21:02;12.40;99.90
16999;DHT22;10211;49.476;11.010;2023-03-14T08:23:29;12.40;99.90
16999;DHT22;10211;49.476;11.010;2023-03-14T08:25:56;12.30;99.90
16999;DHT22;10211;49.476;11.010;2023-03-14T08:28:24;12.40;99.90
16999;DHT22;10211;49.476;11.010;2023-03-14T08:30:56;12.50;99.90
16999;DHT22;10211;49.476;11.010;2023-03-14T08:33:22;12.60;99.90
16999;DHT22;10211;49.476;11.010;2023-03-14T08:35:53;12.60;99.90
16999;DHT22;10211;49.476;11.010;2023-03-14T08:38:20;12.90;99.90
16999;DHT22;10211;49.476;11.010;2023-03-14T08:40:47;13.30;99.90
16999;DHT22;10211;49.476;11.010;2023-03-14T08:43:14;13.80;99.90
16999;DHT22;10211;49.476;11.010;2023-03-14T08:45:42;14.30;99.90
16999;DHT22;10211;49.476;11.010;2023-03-14T08:48:09;14.50;99.90
16999;DHT22;10211;49.476;11.010;2023-03-14T08:50:36;14.90;99.90
16999;DHT22;10211;49.476;11.010;2023-03-14T08:53:02;15.30;99.90
16999;DHT22;10211;49.476;11.010;2023-03-14T08:55:29;15.70;99.90
16999;DHT22;10211;49.476;11.010;2023-03-14T08:57:56;15.50;99.90
16999;DHT22;10211;49.476;11.010;2023-03-14T09:00:23;15.00;99.90
16999;DHT22;10211;49.476;11.010;2023-03-14T09:02:51;14.70;99.90
16999;DHT22;10211;49.476;11.010;2023-03-14T09:05:17;14.30;99.90
16999;DHT22;10211;49.476;11.010;2023-03-14T09:07:44;14.20;99.90
16999;DHT22;10211;49.476;11.010;2023-03-14T09:10:11;14.00;99.90
16999;DHT22;10211;49.476;11.010;2023-03-14T09:12:38;14.00;99.90
16999;DHT22;10211;49.476;11.010;2023-03-14T09:15:05;14.10;99.90
16999;DHT22;10211;49.476;11.010;2023-03-14T09:17:32;14.30;99.90
16999;DHT22;10211;49.476;11.010;2023-03-14T09:20:01;14.50;99.90
16999;DHT22;10211;49.476;11.010;2023-03-14T09:22:32;14.80;99.90
16999;DHT22;10211;49.476;11.010;2023-03-14T09:24:58;15.30;99.90
16999;DHT22;10211;49.476;11.010;2023-03-14T09:27:25;15.70;99.90
16999;DHT22;10211;49.476;11.010;2023-03-14T09:29:52;16.10;99.90
16999;DHT22;10211;49.476;11.010;2023-03-14T09:32:19;16.40;99.10
16999;DHT22;10211;49.476;11.010;2023-03-14T09:34:45;16.50;98.10
16999;DHT22;10211;49.476;11.010;2023-03-14T09:37:14;16.30;97.70
16999;DHT22;10211;49.476;11.010;2023-03-14T09:39:41;15.80;98.00
16999;DHT22;10211;49.476;11.010;2023-03-14T09:42:14;15.50;98.90
16999;DHT22;10211;49.476;11.010;2023-03-14T09:44:45;15.20;98.60
16999;DHT22;10211;49.476;11.010;2023-03-14T09:47:15;14.70;98.40
16999;DHT22;10211;49.476;11.010;2023-03-14T09:49:45;14.10;98.90
16999;DHT22;10211;49.476;11.010;2023-03-14T09:52:15;13.60;99.20
16999;DHT22;10211;49.476;11.010;2023-03-14T09:54:45;13.30;99.90
16999;DHT22;10211;49.476;11.010;2023-03-14T09:57:15;13.10;99.90
16999;DHT22;10211;49.476;11.010;2023-03-14T09:59:45;13.00;99.90
16999;DHT22;10211;49.476;11.010;2023-03-14T10:02:15;12.90;99.90
16999;DHT22;10211;49.476;11.010;2023-03-14T10:04:45;12.90;99.90
16999;DHT22;10211;49.476;11.010;2023-03-14T10:07:15;12.80;99.90
16999;DHT22;10211;49.476;11.010;2023-03-14T10:09:45;12.80;99.90
16999;DHT22;10211;49.476;11.010;2023-03-14T10:12:13;12.80;99.90
16999;DHT22;10211;49.476;11.010;2023-03-14T10:14:46;12.90;99.90
16999;DHT22;10211;49.476;11.010;2023-03-14T10:17:14;13.00;99.90
16999;DHT22;10211;49.476;11.010;2023-03-14T10:19:53;13.10;99.90
16999;DHT22;10211;49.476;11.010;2023-03-14T10:22:24;13.00;99.90
16999;DHT22;10211;49.476;11.010;2023-03-14T10:24:52;12.90;99.90
16999;DHT22;10211;49.476;11.010;2023-03-14T10:27:22;12.90;99.90
16999;DHT22;10211;49.476;11.010;2023-03-14T10:29:54;12.80;99.90
16999;DHT22;10211;49.476;11.010;2023-03-14T10:32:27;12.80;99.90
16999;DHT22;10211;49.476;11.010;2023-03-14T10:35:07;12.90;99.90
16999;DHT22;10211;49.476;11.010;2023-03-14T10:37:35;13.00;99.90
16999;DHT22;10211;49.476;11.010;2023-03-14T10:40:03;13.10;99.90
16999;DHT22;10211;49.476;11.010;2023-03-14T10:42:34;13.10;99.90
16999;DHT22;10211;49.476;11.010;2023-03-14T10:45:15;13.00;99.90
16999;DHT22;10211;49.476;11.010;2023-03-14T10:47:49;13.00;99.90
16999;DHT22;10211;49.476;11.010;2023-03-14T10:50:24;12.90;99.90
16999;DHT22;10211;49.476;11.010;2023-03-14T10:52:53;12.80;99.90
16999;DHT22;10211;49.476;11.010;2023-03-14T10:55:40;12.70;99.90
16999;DHT22;10211;49.476;11.010;2023-03-14T10:58:18;12.60;99.90
16999;DHT22;10211;49.476;11.010;2023-03-14T11:00:48;12.50;99.90
16999;DHT22;10211;49.476;11.010;2023-03-14T11:03:16;12.40;99.90
16999;DHT22;10211;49.476;11.010;2023-03-14T11:05:49;12.30;99.90
16999;DHT22;10211;49.476;11.010;2023-03-14T11:08:25;12.30;99.90
16999;DHT22;10211;49.476;11.010;2023-03-14T11:10:54;12.20;99.90
16999;DHT22;10211;49.476;11.010;2023-03-14T11:13:25;12.10;99.90
16999;DHT22;10211;49.476;11.010;2023-03-14T11:16:02;12.10;99.90
16999;DHT22;10211;49.476;11.010;2023-03-14T11:21:53;12.70;99.90
16999;DHT22;10211;49.476;11.010;2023-03-14T11:24:37;12.80;99.90
16999;DHT22;10211;49.476;11.010;2023-03-14T11:27:12;12.80;99.90
16999;DHT22;10211;49.476;11.010;2023-03-14T11:29:49;12.60;99.90
16999;DHT22;10211;49.476;11.010;2023-03-14T11:32:23;12.90;99.90
16999;DHT22;10211;49.476;11.010;2023-03-14T11:34:51;14.90;99.90
16999;DHT22;10211;49.476;11.010;2023-03-14T11:37:23;18.80;99.90
16999;DHT22;10211;49.476;11.010;2023-03-14T11:39:59;20.90;92.20
16999;DHT22;10211;49.476;11.010;2023-03-14T11:42:29;21.80;83.30
16999;DHT22;10211;49.476;11.010;2023-03-14T11:44:56;22.50;80.90
16999;DHT22;10211;49.476;11.010;2023-03-14T11:47:27;23.80;77.50
16999;DHT22;10211;49.476;11.010;2023-03-14T11:49:59;25.00;71.20
16999;DHT22;10211;49.476;11.010;2023-03-14T11:52:32;23.60;70.40
16999;DHT22;10211;49.476;11.010;2023-03-14T11:55:07;20.80;73.60
16999;DHT22;10211;49.476;11.010;2023-03-14T11:57:39;18.10;79.80
16999;DHT22;10211;49.476;11.010;2023-03-14T12:00:14;18.80;82.90
16999;DHT22;10211;49.476;11.010;2023-03-14T12:02:48;21.00;77.50
16999;DHT22;10211;49.476;11.010;2023-03-14T12:05:33;21.20;75.70
16999;DHT22;10211;49.476;11.010;2023-03-14T12:08:30;21.20;75.80
16999;DHT22;10211;49.476;11.010;2023-03-14T12:11:04;23.70;72.40
16999;DHT22;10211;49.476;11.010;2023-03-14T12:13:37;26.60;63.00
16999;DHT22;10211;49.476;11.010;2023-03-14T12:16:06;27.20;60.00
16999;DHT22;10211;49.476;11.010;2023-03-14T12:18:35;26.30;58.60
16999;DHT22;10211;49.476;11.010;2023-03-14T12:21:05;25.10;60.00
16999;DHT22;10211;49.476;11.010;2023-03-14T12:23:36;22.40;62.60
16999;DHT22;10211;49.476;11.010;2023-03-14T12:26:13;20.30;68.30
16999;DHT22;10211;49.476;11.010;2023-03-14T12:28:43;18.30;72.10
16999;DHT22;10211;49.476;11.010;2023-03-14T12:31:36;16.90;76.20
16999;DHT22;10211;49.476;11.010;2023-03-14T12:34:24;16.30;79.70
16999;DHT22;10211;49.476;11.010;2023-03-14T12:36:56;16.20;81.10
16999;DHT22;10211;49.476;11.010;2023-03-14T12:39:33;16.10;80.90
16999;DHT22;10211;49.476;11.010;2023-03-14T12:42:05;16.00;81.10
16999;DHT22;10211;49.476;11.010;2023-03-14T12:44:46;15.80;82.30
16999;DHT22;10211;49.476;11.010;2023-03-14T12:50:44;15.40;83.00
16999;DHT22;10211;49.476;11.010;2023-03-14T12:56:34;15.00;86.50
16999;DHT22;10211;49.476;11.010;2023-03-14T12:59:27;14.60;88.70
16999;DHT22;10211;49.476;11.010;2023-03-14T13:01:56;14.20;91.70
16999;DHT22;10211;49.476;11.010;2023-03-14T13:04:28;13.80;93.40
16999;DHT22;10211;49.476;11.010;2023-03-14T13:06:57;13.50;94.60
16999;DHT22;10211;49.476;11.010;2023-03-14T13:10:00;13.30;96.00
16999;DHT22;10211;49.476;11.010;2023-03-14T13:12:30;13.10;96.90
16999;DHT22;10211;49.476;11.010;2023-03-14T13:15:11;12.90;96.70
16999;DHT22;10211;49.476;11.010;2023-03-14T13:17:40;12.60;96.70
16999;DHT22;10211;49.476;11.010;2023-03-14T13:20:12;12.40;97.80
16999;DHT22;10211;49.476;11.010;2023-03-14T13:22:46;12.20;98.90
16999;DHT22;10211;49.476;11.010;2023-03-14T13:25:13;12.20;99.90
16999;DHT22;10211;49.476;11.010;2023-03-14T13:27:40;12.00;99.90
16999;DHT22;10211;49.476;11.010;2023-03-14T13:30:21;11.90;99.90
16999;DHT22;10211;49.476;11.010;2023-03-14T13:32:50;11.70;99.90
16999;DHT22;10211;49.476;11.010;2023-03-14T13:35:19;11.40;99.90
16999;DHT22;10211;49.476;11.010;2023-03-14T13:37:46;11.30;99.90
16999;DHT22;10211;49.476;11.010;2023-03-14T13:40:21;11.10;99.90
16999;DHT22;10211;49.476;11.010;2023-03-14T13:43:01;10.90;99.90
16999;DHT22;10211;49.476;11.010;2023-03-14T13:45:29;10.80;99.90
16999;DHT22;10211;49.476;11.010;2023-03-14T13:47:56;10.80;99.90
16999;DHT22;10211;49.476;11.010;2023-03-14T13:50:23;10.70;99.90
16999;DHT22;10211;49.476;11.010;2023-03-14T13:52:55;10.60;99.90
16999;DHT22;10211;49.476;11.010;2023-03-14T13:55:22;10.50;99.90
16999;DHT22;10211;49.476;11.010;2023-03-14T13:57:51;10.30;99.90
16999;DHT22;10211;49.476;11.010;2023-03-14T14:00:22;10.20;99.90
16999;DHT22;10211;49.476;11.010;2023-03-14T14:02:53;10.00;99.90
16999;DHT22;10211;49.476;11.010;2023-03-14T14:05:21;10.00;99.90
16999;DHT22;10211;49.476;11.010;2023-03-14T14:07:49;10.00;99.90
16999;DHT22;10211;49.476;11.010;2023-03-14T14:10:16;10.00;99.90
16999;DHT22;10211;49.476;11.010;2023-03-14T14:12:46;10.00;99.90
16999;DHT22;10211;49.476;11.010;2023-03-14T14:15:19;10.00;99.90
16999;DHT22;10211;49.476;11.010;2023-03-14T14:17:49;9.90;99.90
16999;DHT22;10211;49.476;11.010;2023-03-14T14:20:22;9.90;99.90
16999;DHT22;10211;49.476;11.010;2023-03-14T14:22:50;9.90;99.90
16999;DHT22;10211;49.476;11.010;2023-03-14T14:25:18;9.80;99.90
16999;DHT22;10211;49.476;11.010;2023-03-14T14:27:48;9.80;99.90
16999;DHT22;10211;49.476;11.010;2023-03-14T14:30:30;9.80;99.90
16999;DHT22;10211;49.476;11.010;2023-03-14T14:33:20;9.70;99.90
16999;DHT22;10211;49.476;11.010;2023-03-14T14:35:54;9.50;99.90
16999;DHT22;10211;49.476;11.010;2023-03-14T14:38:21;9.50;99.90
16999;DHT22;10211;49.476;11.010;2023-03-14T14:40:49;9.50;99.90
16999;DHT22;10211;49.476;11.010;2023-03-14T14:43:21;9.50;99.90
16999;DHT22;10211;49.476;11.010;2023-03-14T14:45:50;9.70;99.90
16999;DHT22;10211;49.476;11.010;2023-03-14T14:48:20;9.30;99.90
16999;DHT22;10211;49.476;11.010;2023-03-14T14:50:56;9.10;99.90
16999;DHT22;10211;49.476;11.010;2023-03-14T14:53:29;9.00;99.90
16999;DHT22;10211;49.476;11.010;2023-03-14T14:55:58;8.90;99.90
16999;DHT22;10211;49.476;11.010;2023-03-14T14:58:26;8.80;99.90
16999;DHT22;10211;49.476;11.010;2023-03-14T15:00:57;8.60;99.90
16999;DHT22;10211;49.476;11.010;2023-03-14T15:03:27;8.50;99.90
16999;DHT22;10211;49.476;11.010;2023-03-14T15:05:56;8.30;99.90
16999;DHT22;10211;49.476;11.010;2023-03-14T15:08:24;8.20;99.90
16999;DHT22;10211;49.476;11.010;2023-03-14T15:10:51;8.20;99.90
16999;DHT22;10211;49.476;11.010;2023-03-14T15:13:18;8.10;99.90
16999;DHT22;10211;49.476;11.010;2023-03-14T15:15:45;8.00;99.90
16999;DHT22;10211;49.476;11.010;2023-03-14T15:18:14;8.10;99.90
16999;DHT22;10211;49.476;11.010;2023-03-14T15:20:41;8.10;99.90
16999;DHT22;10211;49.476;11.010;2023-03-14T15:23:11;8.00;99.90
16999;DHT22;10211;49.476;11.010;2023-03-14T15:25:39;7.90;99.90
16999;DHT22;10211;49.476;11.010;2023-03-14T15:28:25;7.80;99.90
16999;DHT22;10211;49.476;11.010;2023-03-14T15:30:54;7.70;99.90
16999;DHT22;10211;49.476;11.010;2023-03-14T15:33:21;7.70;99.90
16999;DHT22;10211;49.476;11.010;2023-03-14T15:35:48;7.70;99.90
16999;DHT22;10211;49.476;11.010;2023-03-14T15:38:18;7.70;99.90
16999;DHT22;10211;49.476;11.010;2023-03-14T15:40:46;7.70;99.90
16999;DHT22;10211;49.476;11.010;2023-03-14T15:43:13;7.70;99.90
16999;DHT22;10211;49.476;11.010;2023-03-14T15:45:40;7.70;99.90
16999;DHT22;10211;49.476;11.010;2023-03-14T15:48:08;7.60;99.90